Time;durP1;ratioP1;P1;durP2;ratioP2;P2;SDS_P1;SDS_P2;PMS_P1;PMS_P2;Temp;Humidity;BMP_temperature;BMP_pressure;BME280_temperature;BME280_humidity;BME280_pressure;Samples;Min_cycle;Max_cycle;Signal;HPM_P1;HPM_P2
2023/12/25 00:01:36;;;;;;;;;;;;;;;24.40;31.08;96583.19;5113438;27;19920;-90
2023/12/25 00:04:02;;;;;;;;;;;;;;;24.00;31.65;96583.41;5121446;27;19920;-90
2023/12/25 00:06:28;;;;;;;;;;;;;;;25.15;30.31;96603.66;5125191;27;19927;-91
2023/12/25 00:08:54;;;;;;;;;;;;;;;25.34;29.66;96601.50;5117582;28;19965;-90
2023/12/25 00:11:20;;;;;;;;;;;;;;;26.13;28.72;96590.59;5112262;28;19979;-90
2023/12/25 00:13:48;;;;;;;;;;;;;;;25.98;28.82;96579.31;5118486;28;20462;-90
2023/12/25 00:16:14;;;;;;;;;;;;;;;25.68;29.01;96572.06;5111054;27;20367;-91
2023/12/25 00:18:40;;;;;;;;;;;;;;;25.28;29.91;96587.31;5109098;27;19970;-90
2023/12/25 00:21:06;;;;;;;;;;;;;;;25.95;28.79;96581.03;5105355;27;19920;-90
2023/12/25 00:23:32;;;;;;;;;;;;;;;26.93;27.72;96578.94;5113088;27;19920;-89
2023/12/25 00:25:58;;;;;;;;;;;;;;;27.43;26.81;96588.91;5097129;28;19924;-89
2023/12/25 00:28:24;;;;;;;;;;;;;;;26.44;27.97;96588.09;5113991;28;19924;-90
2023/12/25 00:30:50;;;;;;;;;;;;;;;26.81;27.38;96571.59;5118228;27;19910;-90
2023/12/25 00:33:16;;;;;;;;;;;;;;;27.27;26.88;96564.84;5125001;27;19978;-90
2023/12/25 00:35:42;;;;;;;;;;;;;;;26.82;27.55;96568.25;5118423;27;20361;-90
2023/12/25 00:38:08;;;;;;;;;;;;;;;27.06;27.33;96560.44;5109039;27;19979;-89
2023/12/25 00:40:34;;;;;;;;;;;;;;;27.37;26.83;96555.00;5110769;27;19988;-90
2023/12/25 00:43:00;;;;;;;;;;;;;;;27.13;27.25;96551.56;5113892;28;19935;-89
2023/12/25 00:45:26;;;;;;;;;;;;;;;27.42;26.66;96558.41;5113372;27;19959;-89
2023/12/25 00:47:52;;;;;;;;;;;;;;;27.76;26.40;96563.94;5113273;27;20402;-90
2023/12/25 00:50:18;;;;;;;;;;;;;;;27.49;26.58;96572.06;5119418;27;19920;-90
2023/12/25 00:52:44;;;;;;;;;;;;;;;27.26;26.96;96565.31;5119706;27;19920;-89
2023/12/25 00:55:10;;;;;;;;;;;;;;;27.28;26.70;96571.25;5117415;27;19921;-90
2023/12/25 00:57:36;;;;;;;;;;;;;;;27.26;26.79;96573.75;5110385;27;19920;-89
2023/12/25 01:00:02;;;;;;;;;;;;;;;26.59;27.76;96577.59;5107148;27;19935;-89
2023/12/25 01:02:28;;;;;;;;;;;;;;;26.43;28.21;96581.69;5115799;27;19927;-89
2023/12/25 01:04:55;;;;;;;;;;;;;;;26.59;27.80;96567.13;5118131;27;19920;-89
2023/12/25 01:07:21;;;;;;;;;;;;;;;26.37;28.01;96561.09;5107966;27;19920;-89
2023/12/25 01:09:47;;;;;;;;;;;;;;;27.04;27.30;96562.19;5099067;28;20303;-89
2023/12/25 01:12:13;;;;;;;;;;;;;;;27.11;27.20;96567.41;5105346;27;19926;-90
2023/12/25 01:14:43;;;;;;;;;;;;;;;26.03;28.59;96579.41;5110455;27;20019;-90
2023/12/25 01:17:10;;;;;;;;;;;;;;;26.52;28.03;96581.59;5109924;28;20403;-89
2023/12/25 01:19:36;;;;;;;;;;;;;;;26.18;28.42;96575.88;5111201;28;19928;-90
2023/12/25 01:22:02;;;;;;;;;;;;;;;26.71;28.00;96582.94;5111917;27;19920;-89
2023/12/25 01:24:28;;;;;;;;;;;;;;;26.75;27.91;96574.31;5109525;28;19919;-89
2023/12/25 01:26:54;;;;;;;;;;;;;;;27.21;27.11;96577.31;5090219;28;19966;-90
2023/12/25 01:29:20;;;;;;;;;;;;;;;26.63;27.78;96581.78;5107982;28;19924;-89
2023/12/25 01:31:45;;;;;;;;;;;;;;;26.16;28.63;96586.84;5108981;27;19983;-89
2023/12/25 01:34:11;;;;;;;;;;;;;;;26.69;28.10;96582.66;5104274;28;19920;-90
2023/12/25 01:36:38;;;;;;;;;;;;;;;26.85;27.54;96577.78;5100192;28;20295;-89
2023/12/25 01:39:04;;;;;;;;;;;;;;;26.95;27.69;96585.63;5104601;28;19970;-89
2023/12/25 01:41:30;;;;;;;;;;;;;;;25.06;30.75;96606.50;5108708;28;19955;-89
2023/12/25 01:43:56;;;;;;;;;;;;;;;26.14;28.97;96598.56;5100992;28;19922;-89
2023/12/25 01:46:23;;;;;;;;;;;;;;;26.06;29.02;96603.00;5101059;28;19924;-89
2023/12/25 01:48:52;;;;;;;;;;;;;;;26.06;28.78;96597.38;5078503;28;19934;-89
2023/12/25 01:51:21;;;;;;;;;;;;;;;26.11;28.73;96596.72;5099020;28;19920;-88
2023/12/25 01:53:47;;;;;;;;;;;;;;;25.96;28.84;96601.50;5098210;28;20387;-89
2023/12/25 01:56:13;;;;;;;;;;;;;;;26.56;28.33;96610.31;5099107;27;19924;-88
2023/12/25 01:58:39;;;;;;;;;;;;;;;26.13;28.74;96608.28;5100690;28;20015;-89
2023/12/25 02:01:05;;;;;;;;;;;;;;;26.17;28.58;96608.84;5094579;28;19923;-88
2023/12/25 02:03:31;;;;;;;;;;;;;;;26.27;28.64;96610.31;5097227;28;19920;-88
2023/12/25 02:05:57;;;;;;;;;;;;;;;26.53;28.36;96611.31;5086739;28;19926;-89
2023/12/25 02:08:24;;;;;;;;;;;;;;;26.87;27.65;96609.03;5097975;27;20403;-88
2023/12/25 02:10:50;;;;;;;;;;;;;;;26.37;28.48;96611.00;5096433;27;19965;-88
2023/12/25 02:13:16;;;;;;;;;;;;;;;25.91;29.12;96613.44;5097948;28;20333;-88
2023/12/25 02:15:42;;;;;;;;;;;;;;;26.26;29.68;96603.13;5095717;28;19924;-89
2023/12/25 02:18:08;;;;;;;;;;;;;;;26.87;27.74;96609.81;5097031;28;20354;-88
2023/12/25 02:20:35;;;;;;;;;;;;;;;26.59;28.05;96598.09;5096932;28;20450;-88
2023/12/25 02:23:04;;;;;;;;;;;;;;;27.17;27.34;96585.16;5097305;28;19935;-88
2023/12/25 02:25:33;;;;;;;;;;;;;;;27.70;26.69;96577.19;5095517;27;19963;-87
2023/12/25 02:28:00;;;;;;;;;;;;;;;27.90;26.41;96571.53;5097244;28;20448;-88
2023/12/25 02:30:27;;;;;;;;;;;;;;;27.85;26.56;96577.88;5099123;28;19920;-87
2023/12/25 02:32:53;;;;;;;;;;;;;;;28.19;25.94;96578.28;5096764;28;19928;-88
2023/12/25 02:35:19;;;;;;;;;;;;;;;28.41;25.51;96561.53;5096987;28;20447;-88
2023/12/25 02:37:45;;;;;;;;;;;;;;;28.08;25.87;96567.63;5095507;28;19931;-88
2023/12/25 02:40:11;;;;;;;;;;;;;;;27.16;26.92;96578.00;5097193;28;20295;-88
2023/12/25 02:42:37;;;;;;;;;;;;;;;26.86;27.60;96574.50;5098085;28;19939;-88
2023/12/25 02:45:03;;;;;;;;;;;;;;;27.78;26.50;96571.91;5094404;28;19923;-87
2023/12/25 02:47:29;;;;;;;;;;;;;;;28.22;25.89;96572.41;5096616;28;19927;-87
2023/12/25 02:49:55;;;;;;;;;;;;;;;28.27;25.82;96580.16;5096692;28;19916;-88
2023/12/25 02:52:21;;;;;;;;;;;;;;;28.06;25.82;96582.25;5097639;28;19919;-88
2023/12/25 02:54:47;;;;;;;;;;;;;;;28.14;25.58;96576.16;5096331;28;19928;-88
2023/12/25 02:57:13;;;;;;;;;;;;;;;27.15;26.97;96579.25;5096787;28;19927;-88
2023/12/25 02:59:39;;;;;;;;;;;;;;;27.47;26.54;96572.53;5095033;28;20060;-88
2023/12/25 03:02:05;;;;;;;;;;;;;;;27.39;26.80;96574.25;5097272;28;19951;-88
2023/12/25 03:04:31;;;;;;;;;;;;;;;27.21;26.75;96574.50;5099825;28;20018;-87
2023/12/25 03:06:57;;;;;;;;;;;;;;;27.19;27.07;96571.38;5102644;28;20430;-88
2023/12/25 03:09:23;;;;;;;;;;;;;;;27.55;26.33;96572.91;5083742;28;19924;-88
2023/12/25 03:11:49;;;;;;;;;;;;;;;27.62;26.31;96573.25;5103580;27;19923;-87
2023/12/25 03:14:15;;;;;;;;;;;;;;;27.17;27.11;96585.16;5101472;28;19977;-87
2023/12/25 03:16:41;;;;;;;;;;;;;;;27.04;27.27;96581.91;5101878;28;19924;-88
2023/12/25 03:19:07;;;;;;;;;;;;;;;26.49;27.61;96584.63;5082918;27;19919;-87
2023/12/25 03:21:33;;;;;;;;;;;;;;;26.91;27.49;96587.09;5091890;28;19972;-88
2023/12/25 03:23:59;;;;;;;;;;;;;;;26.64;27.48;96594.59;5102027;28;20458;-87
2023/12/25 03:26:25;;;;;;;;;;;;;;;27.28;26.70;96586.09;5101765;28;19994;-88
2023/12/25 03:28:51;;;;;;;;;;;;;;;26.83;27.24;96583.91;5101204;27;19973;-88
2023/12/25 03:31:17;;;;;;;;;;;;;;;27.25;26.58;96580.69;5099437;28;20299;-88
2023/12/25 03:33:43;;;;;;;;;;;;;;;27.10;26.58;96577.91;5101627;28;19985;-88
2023/12/25 03:36:09;;;;;;;;;;;;;;;27.19;26.69;96583.41;5103120;27;19920;-88
2023/12/25 03:38:35;;;;;;;;;;;;;;;27.59;26.24;96585.50;5100799;27;19919;-87
2023/12/25 03:41:01;;;;;;;;;;;;;;;27.61;26.22;96580.16;5101043;28;20367;-87
2023/12/25 03:43:27;;;;;;;;;;;;;;;27.64;26.31;96582.00;5103811;28;19934;-87
2023/12/25 03:45:53;;;;;;;;;;;;;;;27.17;27.40;96588.78;5101955;27;20417;-88
2023/12/25 03:48:20;;;;;;;;;;;;;;;27.72;26.48;96590.81;5100902;28;20155;-87
2023/12/25 03:50:46;;;;;;;;;;;;;;;27.52;26.46;96571.84;5101655;27;19920;-87
2023/12/25 03:53:12;;;;;;;;;;;;;;;27.42;26.58;96587.38;5097610;27;20356;-88
2023/12/25 03:55:38;;;;;;;;;;;;;;;27.69;26.33;96583.31;5101381;27;20022;-87
2023/12/25 03:58:04;;;;;;;;;;;;;;;27.80;26.09;96575.78;5101473;27;20292;-87
2023/12/25 04:00:30;;;;;;;;;;;;;;;27.58;26.30;96580.38;5100222;27;20023;-88
2023/12/25 04:02:56;;;;;;;;;;;;;;;27.63;26.40;96579.69;5101125;28;19968;-88
2023/12/25 04:05:23;;;;;;;;;;;;;;;27.63;26.26;96594.56;5102664;28;19935;-88
2023/12/25 04:07:50;;;;;;;;;;;;;;;27.75;26.29;96596.22;5101847;28;19928;-88
2023/12/25 04:10:16;;;;;;;;;;;;;;;27.86;25.94;96606.88;5077923;28;19916;-87
2023/12/25 04:12:42;;;;;;;;;;;;;;;26.81;27.19;96605.38;5100308;28;19924;-88
2023/12/25 04:15:08;;;;;;;;;;;;;;;27.79;26.05;96610.91;5102817;27;19927;-88
2023/12/25 04:17:34;;;;;;;;;;;;;;;27.68;25.92;96615.63;5100511;27;20016;-88
2023/12/25 04:20:00;;;;;;;;;;;;;;;27.85;25.68;96625.84;5100707;28;19926;-87
2023/12/25 04:22:26;;;;;;;;;;;;;;;27.89;25.85;96622.81;5101933;28;20033;-87
2023/12/25 04:24:52;;;;;;;;;;;;;;;27.36;26.29;96617.47;5100451;28;20010;-88
2023/12/25 04:27:18;;;;;;;;;;;;;;;28.01;25.61;96628.13;5100678;28;20003;-87
2023/12/25 04:29:45;;;;;;;;;;;;;;;28.24;25.37;96631.94;5102534;28;20626;-87
2023/12/25 04:32:11;;;;;;;;;;;;;;;27.16;27.38;96629.50;5097569;28;20391;-87
2023/12/25 04:34:37;;;;;;;;;;;;;;;26.86;27.04;96625.19;5099615;28;20395;-87
2023/12/25 04:37:03;;;;;;;;;;;;;;;27.43;26.31;96625.53;5099902;28;20318;-87
2023/12/25 04:39:29;;;;;;;;;;;;;;;27.54;26.53;96628.50;5101247;28;20392;-88
2023/12/25 04:41:55;;;;;;;;;;;;;;;27.23;26.77;96639.59;5101503;28;19955;-87
2023/12/25 04:44:21;;;;;;;;;;;;;;;27.71;26.22;96642.81;5101460;28;19926;-87
2023/12/25 04:46:47;;;;;;;;;;;;;;;27.11;26.93;96649.91;5100415;28;20069;-88
2023/12/25 04:49:14;;;;;;;;;;;;;;;27.49;26.33;96646.16;5100556;27;19927;-88
2023/12/25 04:51:39;;;;;;;;;;;;;;;27.08;28.45;96614.25;5101561;27;19928;-90
2023/12/25 04:54:06;;;;;;;;;;;;;;;27.42;26.57;96660.66;5097443;28;19919;-87
2023/12/25 04:56:32;;;;;;;;;;;;;;;27.24;26.38;96661.63;5099035;28;19947;-87
2023/12/25 04:58:58;;;;;;;;;;;;;;;27.97;25.57;96649.31;5097949;28;19959;-87
2023/12/25 05:01:24;;;;;;;;;;;;;;;27.11;26.50;96651.94;5093231;28;19928;-88
2023/12/25 05:03:50;;;;;;;;;;;;;;;27.16;26.09;96663.31;5096808;27;19977;-88
2023/12/25 05:06:16;;;;;;;;;;;;;;;27.18;26.52;96665.63;5100947;28;19998;-87
2023/12/25 05:08:42;;;;;;;;;;;;;;;26.98;26.55;96666.34;5098754;28;19923;-88
2023/12/25 05:11:08;;;;;;;;;;;;;;;25.02;29.83;96684.50;5099644;28;19943;-89
2023/12/25 05:13:34;;;;;;;;;;;;;;;25.46;28.53;96667.97;5097973;27;19977;-86
2023/12/25 05:16:00;;;;;;;;;;;;;;;24.31;29.86;96677.81;5094850;28;19927;-88
2023/12/25 05:18:26;;;;;;;;;;;;;;;24.42;30.46;96667.66;5098815;27;19927;-89
2023/12/25 05:20:52;;;;;;;;;;;;;;;24.13;31.10;96675.03;5098673;28;19966;-89
2023/12/25 05:23:18;;;;;;;;;;;;;;;25.21;28.67;96680.38;5097926;28;19926;-87
2023/12/25 05:25:44;;;;;;;;;;;;;;;24.11;30.01;96699.97;5100654;28;19919;-89
2023/12/25 05:28:10;;;;;;;;;;;;;;;23.56;31.75;96694.25;5099733;28;19969;-87
2023/12/25 05:30:36;;;;;;;;;;;;;;;24.57;29.20;96693.84;5100764;28;20387;-87
2023/12/25 05:33:03;;;;;;;;;;;;;;;24.04;30.12;96706.59;5097353;28;19928;-87
2023/12/25 05:35:29;;;;;;;;;;;;;;;24.61;29.39;96696.47;5093998;27;19973;-87
2023/12/25 05:37:55;;;;;;;;;;;;;;;23.19;34.95;96710.16;5097161;28;19924;-88
2023/12/25 05:40:22;;;;;;;;;;;;;;;24.13;32.51;96700.28;5101688;28;19920;-87
2023/12/25 05:42:48;;;;;;;;;;;;;;;25.21;28.25;96735.78;5100697;27;19977;-86
2023/12/25 05:45:14;;;;;;;;;;;;;;;26.64;26.97;96729.75;5097652;28;19926;-86
2023/12/25 05:47:40;;;;;;;;;;;;;;;27.13;26.04;96714.22;5100453;28;20375;-87
2023/12/25 05:50:09;;;;;;;;;;;;;;;26.60;26.88;96717.13;5095866;28;19924;-86
2023/12/25 05:52:35;;;;;;;;;;;;;;;27.60;26.02;96711.16;5093583;28;19927;-86
2023/12/25 05:55:01;;;;;;;;;;;;;;;27.59;27.55;96732.13;5096644;28;19920;-86
2023/12/25 05:57:28;;;;;;;;;;;;;;;26.62;27.04;96726.63;5094086;27;19924;-86
2023/12/25 05:59:54;;;;;;;;;;;;;;;27.86;25.79;96711.25;5095884;27;19972;-86
2023/12/25 06:02:20;;;;;;;;;;;;;;;27.61;25.40;96711.94;5096821;28;19927;-86
2023/12/25 06:04:46;;;;;;;;;;;;;;;27.40;25.93;96720.31;5096814;28;19974;-86
2023/12/25 06:07:12;;;;;;;;;;;;;;;27.93;25.25;96725.72;5093409;28;19966;-86
2023/12/25 06:09:38;;;;;;;;;;;;;;;28.47;24.27;96718.44;5095193;28;19951;-86
2023/12/25 06:12:04;;;;;;;;;;;;;;;28.06;24.90;96723.34;5096519;28;20391;-85
2023/12/25 06:14:30;;;;;;;;;;;;;;;27.76;25.20;96721.88;5080774;28;19988;-86
2023/12/25 06:16:56;;;;;;;;;;;;;;;28.56;24.29;96735.25;5098382;28;19932;-86
2023/12/25 06:19:23;;;;;;;;;;;;;;;29.18;23.75;96717.66;5097748;28;20007;-86
2023/12/25 06:21:49;;;;;;;;;;;;;;;29.32;23.39;96739.38;5099454;28;19928;-86
2023/12/25 06:24:15;;;;;;;;;;;;;;;29.34;23.29;96736.81;5098257;28;19919;-86
2023/12/25 06:26:41;;;;;;;;;;;;;;;29.21;23.57;96730.81;5098056;28;19973;-86
2023/12/25 06:29:07;;;;;;;;;;;;;;;29.08;23.44;96733.22;5096239;28;20380;-86
2023/12/25 06:31:33;;;;;;;;;;;;;;;29.04;23.41;96746.00;5097761;28;19920;-86
2023/12/25 06:33:59;;;;;;;;;;;;;;;28.53;24.36;96738.28;5096065;28;19928;-86
2023/12/25 06:36:25;;;;;;;;;;;;;;;28.48;24.00;96742.59;5097486;28;19935;-86
2023/12/25 06:38:51;;;;;;;;;;;;;;;28.00;24.55;96735.84;5098775;28;19932;-86
2023/12/25 06:41:17;;;;;;;;;;;;;;;28.48;24.13;96734.13;5096874;28;19920;-85
2023/12/25 06:43:43;;;;;;;;;;;;;;;29.01;23.72;96744.97;5097036;28;19920;-86
2023/12/25 06:46:09;;;;;;;;;;;;;;;28.83;23.92;96745.31;5093894;28;20022;-86
2023/12/25 06:48:35;;;;;;;;;;;;;;;29.37;23.01;96743.50;5095700;28;19920;-86
2023/12/25 06:51:01;;;;;;;;;;;;;;;29.49;22.94;96727.41;5094185;28;19920;-85
2023/12/25 06:53:27;;;;;;;;;;;;;;;29.56;22.66;96730.56;5096050;28;19920;-86
2023/12/25 06:55:53;;;;;;;;;;;;;;;29.32;23.07;96722.41;5098129;28;20375;-86
2023/12/25 06:58:20;;;;;;;;;;;;;;;28.72;23.55;96733.91;5095289;28;19988;-85
2023/12/25 07:00:46;;;;;;;;;;;;;;;29.09;23.12;96748.13;5093986;28;19965;-86
2023/12/25 07:03:12;;;;;;;;;;;;;;;29.57;22.87;96751.13;5094574;28;19922;-86
2023/12/25 07:05:38;;;;;;;;;;;;;;;29.34;22.94;96753.00;5094020;28;19920;-87
2023/12/25 07:08:04;;;;;;;;;;;;;;;28.68;23.81;96762.34;5094026;28;20379;-87
2023/12/25 07:10:30;;;;;;;;;;;;;;;28.48;24.08;96765.19;5098427;28;19973;-87
2023/12/25 07:12:56;;;;;;;;;;;;;;;29.08;23.42;96766.38;5095965;28;20310;-87
2023/12/25 07:15:22;;;;;;;;;;;;;;;29.06;23.34;96763.25;5095141;28;19924;-88
2023/12/25 07:17:48;;;;;;;;;;;;;;;28.90;23.43;96759.00;5096998;28;20302;-88
2023/12/25 07:20:14;;;;;;;;;;;;;;;29.14;23.31;96767.97;5094900;28;19966;-87
2023/12/25 07:22:40;;;;;;;;;;;;;;;28.82;24.04;96772.03;5096580;28;20007;-87
2023/12/25 07:25:06;;;;;;;;;;;;;;;28.49;23.97;96780.88;5093871;28;19920;-87
2023/12/25 07:27:34;;;;;;;;;;;;;;;28.25;24.68;96771.03;5093489;28;19942;-86
2023/12/25 07:30:00;;;;;;;;;;;;;;;28.24;24.34;96772.31;5094539;28;20283;-86
2023/12/25 07:32:28;;;;;;;;;;;;;;;28.72;23.87;96776.28;5095050;28;19949;-87
2023/12/25 07:34:54;;;;;;;;;;;;;;;28.65;24.33;96785.97;5096377;28;19927;-85
2023/12/25 07:37:20;;;;;;;;;;;;;;;28.36;24.59;96788.91;5095726;28;19930;-86
2023/12/25 07:39:46;;;;;;;;;;;;;;;28.58;24.53;96783.53;5091937;28;19920;-86
2023/12/25 07:42:12;;;;;;;;;;;;;;;28.64;24.20;96780.78;5096488;28;19927;-87
2023/12/25 07:44:39;;;;;;;;;;;;;;;29.11;23.58;96787.97;5089628;28;19973;-88
2023/12/25 07:47:05;;;;;;;;;;;;;;;29.10;23.78;96786.44;5090293;28;19939;-86
2023/12/25 07:49:31;;;;;;;;;;;;;;;29.23;23.63;96784.00;5093724;28;19988;-87
2023/12/25 07:51:57;;;;;;;;;;;;;;;29.60;23.21;96792.53;5097987;28;19993;-87
2023/12/25 07:54:23;;;;;;;;;;;;;;;29.60;22.87;96798.97;5098468;28;20389;-88
2023/12/25 07:56:49;;;;;;;;;;;;;;;29.60;22.93;96793.31;5102222;27;19920;-87
2023/12/25 07:59:18;;;;;;;;;;;;;;;29.30;23.12;96795.66;5097195;27;19920;-86
2023/12/25 08:01:43;;;;;;;;;;;;;;;29.22;23.47;96813.56;5099409;27;19934;-84
2023/12/25 08:04:09;;;;;;;;;;;;;;;29.17;23.20;96806.53;5096141;27;19933;-86
2023/12/25 08:06:35;;;;;;;;;;;;;;;29.37;23.42;96815.00;5081299;28;19966;-85
2023/12/25 08:09:01;;;;;;;;;;;;;;;29.56;23.12;96804.09;5101219;28;20022;-88
2023/12/25 08:11:27;;;;;;;;;;;;;;;29.07;23.84;96798.72;5100200;27;19919;-88
2023/12/25 08:13:53;;;;;;;;;;;;;;;29.49;23.27;96793.25;5077949;28;20291;-83
2023/12/25 08:16:20;;;;;;;;;;;;;;;29.90;22.77;96788.94;5097230;28;19936;-82
2023/12/25 08:18:46;;;;;;;;;;;;;;;29.89;22.73;96789.44;5094131;27;19931;-86
2023/12/25 08:21:12;;;;;;;;;;;;;;;28.69;23.89;96783.69;5099351;27;20018;-84
2023/12/25 08:23:40;;;;;;;;;;;;;;;28.31;24.28;96786.03;5080725;28;19924;-84
2023/12/25 08:26:06;;;;;;;;;;;;;;;28.71;24.08;96781.13;5096171;28;20380;-83
2023/12/25 08:28:32;;;;;;;;;;;;;;;29.22;23.59;96776.81;5095133;27;19945;-83
2023/12/25 08:30:58;;;;;;;;;;;;;;;29.61;23.04;96780.75;5100362;27;19939;-84
2023/12/25 08:33:24;;;;;;;;;;;;;;;29.41;23.17;96777.97;5095156;27;19920;-84
2023/12/25 08:35:52;;;;;;;;;;;;;;;29.35;23.04;96786.44;5095448;28;19934;-86
2023/12/25 08:38:17;;;;;;;;;;;;;;;29.44;22.92;96782.66;5099712;27;19928;-87
2023/12/25 08:40:44;;;;;;;;;;;;;;;29.71;22.69;96804.72;5098688;27;19927;-85
2023/12/25 08:43:09;;;;;;;;;;;;;;;28.80;23.43;96785.84;5098907;28;20345;-88
2023/12/25 08:45:35;;;;;;;;;;;;;;;28.96;23.54;96805.06;5098362;27;20474;-86
2023/12/25 08:48:02;;;;;;;;;;;;;;;28.63;23.96;96799.03;5080888;28;19931;-86
2023/12/25 08:50:28;;;;;;;;;;;;;;;28.61;24.13;96816.44;5081115;27;19936;-83
2023/12/25 08:52:54;;;;;;;;;;;;;;;28.42;24.22;96817.22;5099777;28;19920;-83
2023/12/25 08:55:20;;;;;;;;;;;;;;;28.14;24.34;96827.34;5098685;27;20013;-85
2023/12/25 08:57:45;;;;;;;;;;;;;;;28.42;24.27;96809.53;5093451;27;20427;-84
2023/12/25 09:00:12;;;;;;;;;;;;;;;28.08;24.72;96828.03;5096973;27;20002;-84
2023/12/25 09:02:38;;;;;;;;;;;;;;;28.40;26.12;96826.16;5096436;28;19954;-84
2023/12/25 09:05:04;;;;;;;;;;;;;;;27.96;24.60;96826.28;5098313;28;19952;-85
2023/12/25 09:07:31;;;;;;;;;;;;;;;28.03;24.79;96827.94;5097417;28;19935;-85
2023/12/25 09:09:58;;;;;;;;;;;;;;;27.89;24.92;96835.16;5099115;28;19934;-85
2023/12/25 09:12:24;;;;;;;;;;;;;;;27.89;24.99;96828.75;5099292;27;19928;-85
2023/12/25 09:14:50;;;;;;;;;;;;;;;27.63;25.10;96837.06;5097062;28;19931;-83
2023/12/25 09:17:16;;;;;;;;;;;;;;;26.93;26.18;96840.91;5097656;27;19930;-85
2023/12/25 09:19:42;;;;;;;;;;;;;;;27.67;25.34;96828.41;5095105;27;19924;-85
2023/12/25 09:22:08;;;;;;;;;;;;;;;27.80;25.09;96838.09;5096555;27;20410;-82
2023/12/25 09:24:34;;;;;;;;;;;;;;;28.50;24.53;96829.63;5097174;28;19915;-82
2023/12/25 09:27:00;;;;;;;;;;;;;;;28.29;24.50;96813.94;5096121;27;20402;-81
2023/12/25 09:29:27;;;;;;;;;;;;;;;28.27;24.53;96827.78;5093712;28;19931;-84
2023/12/25 09:31:53;;;;;;;;;;;;;;;27.93;27.60;96821.66;5097814;27;20023;-83
2023/12/25 09:34:19;;;;;;;;;;;;;;;28.30;24.49;96832.44;5095362;27;19927;-81
2023/12/25 09:36:45;;;;;;;;;;;;;;;28.71;23.89;96825.56;5096437;27;19932;-83
2023/12/25 09:39:11;;;;;;;;;;;;;;;28.26;24.47;96815.72;5099757;28;20011;-82
2023/12/25 09:41:38;;;;;;;;;;;;;;;28.33;24.09;96834.28;5079712;28;19924;-83
2023/12/25 09:44:05;;;;;;;;;;;;;;;28.52;24.27;96829.94;5097370;27;19920;-83
2023/12/25 09:46:33;;;;;;;;;;;;;;;28.41;24.04;96832.59;5099818;28;19939;-83
2023/12/25 09:48:59;;;;;;;;;;;;;;;28.88;23.81;96818.06;5102240;28;20011;-82
2023/12/25 09:51:27;;;;;;;;;;;;;;;28.95;23.72;96806.31;5097925;28;20288;-82
2023/12/25 09:53:53;;;;;;;;;;;;;;;28.82;24.12;96820.06;5098564;27;19920;-82
2023/12/25 09:56:21;;;;;;;;;;;;;;;28.68;24.06;96818.09;5092809;28;19920;-83
2023/12/25 09:58:48;;;;;;;;;;;;;;;28.74;23.99;96819.69;5093177;27;19928;-83
2023/12/25 10:01:15;;;;;;;;;;;;;;;28.69;24.11;96813.97;5095724;27;19928;-84
2023/12/25 10:03:44;;;;;;;;;;;;;;;28.85;24.26;96816.22;5094853;28;19989;-84
2023/12/25 10:06:10;;;;;;;;;;;;;;;29.03;23.72;96817.97;5096313;28;19931;-82
2023/12/25 10:08:36;;;;;;;;;;;;;;;29.21;23.61;96812.00;5093405;28;19921;-83
2023/12/25 10:11:04;;;;;;;;;;;;;;;29.59;23.14;96819.28;5096313;27;20401;-81
2023/12/25 10:13:31;;;;;;;;;;;;;;;29.77;23.28;96830.25;5105405;27;20034;-84
2023/12/25 10:15:57;;;;;;;;;;;;;;;29.51;23.22;96823.84;5095351;28;19974;-84
2023/12/25 10:18:23;;;;;;;;;;;;;;;29.71;23.02;96821.69;5095715;28;20364;-82
2023/12/25 10:20:56;;;;;;;;;;;;;;;29.32;23.00;96820.59;5081663;28;19977;-84
2023/12/25 10:23:33;;;;;;;;;;;;;;;29.02;24.65;96828.47;5097444;28;20394;-83
2023/12/25 10:25:59;;;;;;;;;;;;;;;28.78;24.07;96830.78;5094461;28;19928;-84
2023/12/25 10:28:26;;;;;;;;;;;;;;;28.39;24.34;96813.31;5096667;27;20342;-84
2023/12/25 10:31:02;;;;;;;;;;;;;;;28.26;24.78;96820.59;5099125;28;19945;-86
2023/12/25 10:33:29;;;;;;;;;;;;;;;27.69;25.46;96812.56;5095773;28;19926;-85
2023/12/25 10:36:02;;;;;;;;;;;;;;;27.53;25.40;96812.28;5094512;28;20406;-84
2023/12/25 10:38:30;;;;;;;;;;;;;;;28.39;24.56;96823.84;5096450;28;20026;-82
2023/12/25 10:40:56;;;;;;;;;;;;;;;28.17;24.92;96823.56;5093514;28;19970;-84
2023/12/25 10:43:23;;;;;;;;;;;;;;;28.13;24.81;96826.56;5097705;28;19920;-84
2023/12/25 10:45:52;;;;;;;;;;;;;;;29.37;23.56;96825.53;5099130;28;19923;-84
2023/12/25 10:48:19;;;;;;;;;;;;;;;28.89;24.18;96833.75;5094564;28;19920;-84
2023/12/25 10:50:46;;;;;;;;;;;;;;;28.92;23.63;96823.47;5100349;28;19934;-84
2023/12/25 10:53:13;;;;;;;;;;;;;;;29.11;23.53;96819.84;5098893;28;19966;-85
2023/12/25 10:55:43;;;;;;;;;;;;;;;29.08;23.89;96826.47;5099958;28;20007;-85
2023/12/25 10:58:12;;;;;;;;;;;;;;;27.61;25.33;96819.09;5097977;28;19920;-86
2023/12/25 11:00:40;;;;;;;;;;;;;;;27.88;25.20;96835.66;5085147;28;19916;-85
2023/12/25 11:03:07;;;;;;;;;;;;;;;28.42;24.76;96817.22;5101003;28;20756;-84
2023/12/25 11:05:34;;;;;;;;;;;;;;;28.98;24.55;96821.50;5096985;28;20393;-84
2023/12/25 11:08:00;;;;;;;;;;;;;;;28.74;24.71;96822.53;5096903;28;20379;-84
2023/12/25 11:10:29;;;;;;;;;;;;;;;29.15;23.88;96837.34;5095511;28;20018;-86
2023/12/25 11:12:56;;;;;;;;;;;;;;;29.72;23.16;96817.59;5095888;28;20341;-85
2023/12/25 11:15:23;;;;;;;;;;;;;;;29.33;23.76;96822.94;5094166;28;19928;-86
2023/12/25 11:17:49;;;;;;;;;;;;;;;28.71;24.29;96828.38;5100724;28;19927;-85
2023/12/25 11:20:16;;;;;;;;;;;;;;;29.13;23.98;96830.63;5103641;28;19920;-86
2023/12/25 11:22:44;;;;;;;;;;;;;;;29.08;24.34;96817.25;5105866;28;20007;-86
2023/12/25 11:25:13;;;;;;;;;;;;;;;29.16;23.73;96829.66;5099111;28;19928;-85
2023/12/25 11:27:40;;;;;;;;;;;;;;;28.61;24.05;96832.63;5106187;27;19924;-85
2023/12/25 11:30:10;;;;;;;;;;;;;;;28.31;24.65;96826.28;5106057;28;20379;-85
2023/12/25 11:32:37;;;;;;;;;;;;;;;28.62;24.31;96834.97;5101453;27;19964;-87
2023/12/25 11:35:04;;;;;;;;;;;;;;;28.35;24.43;96821.25;5102427;27;19965;-89
2023/12/25 11:37:30;;;;;;;;;;;;;;;28.94;23.77;96824.53;5105192;27;19962;-86
2023/12/25 11:39:57;;;;;;;;;;;;;;;27.61;25.37;96841.66;5102188;27;19955;-86
2023/12/25 11:42:24;;;;;;;;;;;;;;;28.49;24.45;96833.72;5080957;27;19950;-87
2023/12/25 11:44:53;;;;;;;;;;;;;;;27.64;25.21;96824.50;5097176;28;19919;-86
2023/12/25 11:47:39;;;;;;;;;;;;;;;28.01;25.03;96822.81;5097366;27;19931;-83
2023/12/25 11:50:06;;;;;;;;;;;;;;;28.35;24.28;96821.25;5100290;27;19916;-87
2023/12/25 11:52:53;;;;;;;;;;;;;;;28.60;23.78;96802.81;5097522;27;20485;-88
2023/12/25 11:55:21;;;;;;;;;;;;;;;28.44;26.42;96821.09;5097937;27;20003;-86
2023/12/25 11:57:47;;;;;;;;;;;;;;;28.31;24.46;96834.00;5097933;27;20436;-85
2023/12/25 12:00:17;;;;;;;;;;;;;;;28.74;23.92;96818.91;5097068;27;19929;-85
2023/12/25 12:02:44;;;;;;;;;;;;;;;28.33;24.51;96825.81;5098611;27;19931;-86
2023/12/25 12:05:10;;;;;;;;;;;;;;;27.31;25.89;96841.63;5094064;27;20291;-85
2023/12/25 12:07:37;;;;;;;;;;;;;;;27.69;25.33;96845.59;5095741;27;19919;-85
2023/12/25 12:10:03;;;;;;;;;;;;;;;28.34;24.44;96830.19;5099847;28;19935;-85
2023/12/25 12:12:29;;;;;;;;;;;;;;;28.13;24.51;96837.06;5092868;27;20003;-87
2023/12/25 12:14:56;;;;;;;;;;;;;;;26.73;26.38;96849.94;5080443;28;19999;-89
2023/12/25 12:17:22;;;;;;;;;;;;;;;28.05;25.00;96845.94;5083677;28;19977;-87
2023/12/25 12:19:48;;;;;;;;;;;;;;;27.62;25.29;96834.72;5098498;27;20288;-86
2023/12/25 12:22:17;;;;;;;;;;;;;;;26.42;28.20;96841.13;5099212;27;19927;-89
2023/12/25 12:24:44;;;;;;;;;;;;;;;26.31;31.11;96838.84;5101406;27;19920;-90
2023/12/25 12:27:13;;;;;;;;;;;;;;;26.45;26.84;96834.53;5097353;27;19969;-89
2023/12/25 12:29:39;;;;;;;;;;;;;;;25.63;29.29;96848.22;5097926;27;20010;-89
2023/12/25 12:32:06;;;;;;;;;;;;;;;24.53;29.03;96850.34;5100559;27;19928;-87
2023/12/25 12:34:32;;;;;;;;;;;;;;;25.48;30.08;96853.75;5098249;28;19923;-87
2023/12/25 12:37:03;;;;;;;;;;;;;;;25.57;28.05;96859.34;5097190;27;19924;-89
2023/12/25 12:39:32;;;;;;;;;;;;;;;24.08;29.81;96847.50;5100985;27;19927;-89
2023/12/25 12:41:59;;;;;;;;;;;;;;;23.86;34.05;96832.75;5097644;27;19928;-90
2023/12/25 12:44:25;;;;;;;;;;;;;;;24.67;29.02;96854.56;5095950;28;19963;-88